Time;durP1;ratioP1;P1;durP2;ratioP2;P2;SDS_P1;SDS_P2;PMS_P1;PMS_P2;Temp;Humidity;BMP_temperature;BMP_pressure;BME280_temperature;BME280_humidity;BME280_pressure;Samples;Min_cycle;Max_cycle;Signal;HPM_P1;HPM_P2
2023/10/08 00:00:43;;;;;;;8.73;2.85;;;;;;;;;;5030398;28;20069;-74
2023/10/08 00:03:10;;;;;;;4.50;1.70;;;;;;;;;;5025148;28;20049;-74
2023/10/08 00:05:39;;;;;;;4.03;2.33;;;;;;;;;;5027938;28;20060;-74
2023/10/08 00:08:06;;;;;;;4.05;2.15;;;;;;;;;;5034632;28;20062;-74
2023/10/08 00:10:35;;;;;;;4.05;2.45;;;;;;;;;;5036158;28;20482;-74
2023/10/08 00:13:03;;;;;;;5.40;2.85;;;;;;;;;;5028209;28;20442;-73
2023/10/08 00:15:32;;;;;;;3.57;1.80;;;;;;;;;;5032472;28;20046;-74
2023/10/08 00:18:02;;;;;;;4.88;2.35;;;;;;;;;;5023178;28;20427;-74
2023/10/08 00:20:35;;;;;;;4.22;2.05;;;;;;;;;;5033953;28;20061;-74
2023/10/08 00:23:07;;;;;;;4.25;2.08;;;;;;;;;;5018867;28;20050;-74
2023/10/08 00:25:40;;;;;;;4.50;2.15;;;;;;;;;;5021170;28;20066;-73
2023/10/08 00:28:13;;;;;;;3.22;2.00;;;;;;;;;;5033438;28;20057;-73
2023/10/08 00:30:41;;;;;;;6.32;2.05;;;;;;;;;;5030319;28;20069;-74
2023/10/08 00:33:08;;;;;;;5.00;2.33;;;;;;;;;;5032797;28;20046;-73
2023/10/08 00:35:38;;;;;;;3.97;1.77;;;;;;;;;;5031396;28;20386;-73
2023/10/08 00:38:07;;;;;;;5.53;2.28;;;;;;;;;;5021002;28;20056;-73
2023/10/08 00:40:38;;;;;;;5.97;1.95;;;;;;;;;;5021616;28;20073;-73
2023/10/08 00:43:10;;;;;;;3.40;2.17;;;;;;;;;;5024014;28;20045;-73
2023/10/08 00:45:43;;;;;;;4.93;2.13;;;;;;;;;;5020018;28;20064;-73
2023/10/08 00:48:15;;;;;;;3.95;2.05;;;;;;;;;;5019772;28;20061;-72
2023/10/08 00:50:43;;;;;;;4.05;2.55;;;;;;;;;;5015863;28;20077;-74
2023/10/08 00:53:17;;;;;;;5.93;2.55;;;;;;;;;;5023387;28;20046;-74
2023/10/08 00:55:52;;;;;;;4.47;2.22;;;;;;;;;;5032895;28;20049;-75
2023/10/08 00:58:26;;;;;;;7.57;3.58;;;;;;;;;;5021308;28;20053;-75
2023/10/08 01:00:59;;;;;;;3.35;1.90;;;;;;;;;;5023178;28;20402;-75
2023/10/08 01:03:27;;;;;;;5.25;2.40;;;;;;;;;;5032975;28;20049;-76
2023/10/08 01:05:54;;;;;;;7.75;2.30;;;;;;;;;;5017879;28;20057;-75
2023/10/08 01:08:34;;;;;;;8.38;2.10;;;;;;;;;;5022546;28;20060;-75
2023/10/08 01:11:16;;;;;;;4.60;1.85;;;;;;;;;;5020818;28;20060;-76
2023/10/08 01:13:45;;;;;;;4.20;2.03;;;;;;;;;;5034879;28;20486;-76
2023/10/08 01:16:15;;;;;;;3.45;1.92;;;;;;;;;;5019086;28;20054;-76
2023/10/08 01:18:50;;;;;;;4.22;2.58;;;;;;;;;;5019047;28;20064;-76
2023/10/08 01:24:02;;;;;;;6.05;2.40;;;;;;;;;;5019369;28;20050;-76
2023/10/08 01:26:32;;;;;;;3.53;1.98;;;;;;;;;;5031240;28;20053;-75
2023/10/08 01:29:02;;;;;;;5.22;2.25;;;;;;;;;;5021075;28;20046;-76
2023/10/08 01:31:32;;;;;;;5.50;1.88;;;;;;;;;;5025039;28;20064;-76
2023/10/08 01:34:00;;;;;;;5.93;2.85;;;;;;;;;;5013593;28;20395;-76
2023/10/08 01:36:28;;;;;;;5.68;2.60;;;;;;;;;;5027678;28;20056;-76
2023/10/08 01:38:55;;;;;;;4.07;2.33;;;;;;;;;;5018917;28;20410;-76
2023/10/08 01:41:29;;;;;;;5.13;2.25;;;;;;;;;;5033391;28;20045;-76
2023/10/08 01:43:57;;;;;;;5.57;2.33;;;;;;;;;;5030230;28;20052;-75
2023/10/08 01:46:26;;;;;;;4.45;1.85;;;;;;;;;;5019329;28;20057;-75
2023/10/08 01:49:04;;;;;;;5.15;1.92;;;;;;;;;;5014310;28;20054;-76
2023/10/08 01:51:38;;;;;;;7.70;2.33;;;;;;;;;;5023056;28;20076;-77
2023/10/08 01:54:10;;;;;;;5.22;1.90;;;;;;;;;;5018449;28;20046;-74
2023/10/08 01:56:42;;;;;;;4.53;2.45;;;;;;;;;;5033388;28;20053;-76
2023/10/08 01:59:10;;;;;;;4.43;1.85;;;;;;;;;;5026952;28;20068;-75
2023/10/08 02:01:40;;;;;;;5.88;2.55;;;;;;;;;;5026973;28;20061;-75
2023/10/08 02:04:08;;;;;;;;;;;;;;;;;;5023560;28;20052;-76
2023/10/08 02:06:35;;;;;;;7.07;2.55;;;;;;;;;;5018037;28;19936;-76
2023/10/08 02:09:07;;;;;;;4.25;2.47;;;;;;;;;;5022855;28;20050;-75
2023/10/08 02:11:43;;;;;;;3.38;2.15;;;;;;;;;;5029468;28;20054;-75
2023/10/08 02:14:11;;;;;;;3.67;1.65;;;;;;;;;;5025327;28;20425;-75
2023/10/08 02:16:38;;;;;;;4.32;2.42;;;;;;;;;;5030780;28;20054;-75
2023/10/08 02:19:10;;;;;;;4.53;2.33;;;;;;;;;;5023076;28;20049;-76
2023/10/08 02:21:39;;;;;;;6.93;3.05;;;;;;;;;;5007599;28;20053;-76
2023/10/08 02:24:08;;;;;;;6.75;2.47;;;;;;;;;;5032796;28;20060;-77
2023/10/08 02:26:35;;;;;;;6.18;2.85;;;;;;;;;;5031318;28;20056;-77
2023/10/08 02:29:10;;;;;;;4.38;2.10;;;;;;;;;;5027232;28;20056;-77
2023/10/08 02:31:37;;;;;;;4.15;2.25;;;;;;;;;;5020611;28;20058;-77
2023/10/08 02:34:07;;;;;;;4.72;2.58;;;;;;;;;;5030772;28;20045;-77
2023/10/08 02:36:36;;;;;;;5.97;2.78;;;;;;;;;;5025014;28;20053;-77
2023/10/08 02:39:13;;;;;;;3.78;2.30;;;;;;;;;;5030734;28;20050;-77
2023/10/08 02:41:41;;;;;;;7.90;2.75;;;;;;;;;;5025013;28;20053;-78
2023/10/08 02:44:11;;;;;;;4.63;2.83;;;;;;;;;;5025399;28;20049;-77
2023/10/08 02:46:40;;;;;;;8.25;2.72;;;;;;;;;;5029490;28;20395;-77
2023/10/08 02:49:11;;;;;;;4.72;3.05;;;;;;;;;;5015710;28;20057;-77
2023/10/08 02:51:41;;;;;;;5.85;2.40;;;;;;;;;;5016952;28;20053;-77
2023/10/08 02:54:16;;;;;;;5.68;2.85;;;;;;;;;;5016966;28;20053;-77
2023/10/08 02:56:45;;;;;;;3.85;2.05;;;;;;;;;;5024853;28;20049;-77
2023/10/08 02:59:13;;;;;;;5.53;3.00;;;;;;;;;;5017896;28;20487;-77
2023/10/08 03:01:40;;;;;;;6.78;2.97;;;;;;;;;;5013710;28;20050;-77
2023/10/08 03:04:17;;;;;;;5.65;2.30;;;;;;;;;;5022166;28;20045;-77
2023/10/08 03:06:44;;;;;;;6.05;2.55;;;;;;;;;;5014231;28;20054;-77
2023/10/08 03:09:13;;;;;;;4.28;2.35;;;;;;;;;;5016250;28;20094;-78
2023/10/08 03:11:46;;;;;;;6.47;3.17;;;;;;;;;;5025758;28;20050;-78
2023/10/08 03:14:21;;;;;;;7.40;2.75;;;;;;;;;;5027354;28;20049;-77
2023/10/08 03:16:52;;;;;;;4.13;1.90;;;;;;;;;;5020637;28;20077;-78
2023/10/08 03:19:20;;;;;;;6.40;3.53;;;;;;;;;;5033188;28;20061;-77
2023/10/08 03:21:50;;;;;;;4.47;2.15;;;;;;;;;;5034374;28;20057;-77
2023/10/08 03:24:38;;;;;;;5.60;2.88;;;;;;;;;;5022861;28;20060;-78
2023/10/08 03:27:12;;;;;;;4.72;2.08;;;;;;;;;;5030136;28;20049;-78
2023/10/08 03:29:44;;;;;;;4.72;1.98;;;;;;;;;;5010531;28;20058;-78
2023/10/08 03:32:15;;;;;;;5.20;2.60;;;;;;;;;;5014981;28;20058;-77
2023/10/08 03:34:46;;;;;;;4.32;2.40;;;;;;;;;;5020988;28;20060;-78
2023/10/08 03:37:19;;;;;;;4.43;2.55;;;;;;;;;;5025047;28;20071;-76
2023/10/08 03:39:53;;;;;;;5.13;3.00;;;;;;;;;;5012643;28;20044;-78
2023/10/08 03:42:23;;;;;;;5.18;2.75;;;;;;;;;;5021015;28;20057;-79
2023/10/08 03:44:56;;;;;;;5.05;2.30;;;;;;;;;;5021786;28;20053;-78
2023/10/08 03:47:26;;;;;;;5.60;2.65;;;;;;;;;;5022374;28;20053;-78
2023/10/08 03:49:56;;;;;;;5.03;2.80;;;;;;;;;;5022868;28;20052;-75
2023/10/08 03:52:25;;;;;;;8.45;3.20;;;;;;;;;;5030451;28;20060;-75
2023/10/08 03:55:04;;;;;;;8.75;3.35;;;;;;;;;;5017097;28;20045;-76
2023/10/08 03:57:45;;;;;;;;;;;;;;;;;;5013813;28;20069;-75
2023/10/08 04:00:18;;;;;;;5.68;2.80;;;;;;;;;;5017480;28;19928;-76
2023/10/08 04:02:54;;;;;;;5.25;2.47;;;;;;;;;;5028467;28;20053;-75
2023/10/08 04:05:27;;;;;;;4.35;2.15;;;;;;;;;;5035283;28;20061;-76
2023/10/08 04:08:17;;;;;;;6.35;2.60;;;;;;;;;;5030593;28;20410;-75
2023/10/08 04:13:44;;;;;;;6.75;2.47;;;;;;;;;;4996119;28;20046;-73
2023/10/08 04:16:18;;;;;;;8.10;3.58;;;;;;;;;;5027309;28;20390;-75
2023/10/08 04:18:46;;;;;;;7.70;3.15;;;;;;;;;;5033627;28;20065;-75
2023/10/08 04:21:13;;;;;;;5.13;2.78;;;;;;;;;;5026505;28;20049;-75
2023/10/08 04:23:41;;;;;;;10.10;2.50;;;;;;;;;;5026770;28;20053;-75
2023/10/08 04:26:08;;;;;;;5.93;2.70;;;;;;;;;;5014739;28;20052;-75
2023/10/08 04:28:35;;;;;;;5.60;3.33;;;;;;;;;;5024197;28;20418;-75
2023/10/08 04:31:14;;;;;;;5.43;2.67;;;;;;;;;;5024507;28;20423;-74
2023/10/08 04:33:44;;;;;;;10.68;3.10;;;;;;;;;;5031458;28;20057;-76
2023/10/08 04:36:17;;;;;;;10.70;3.30;;;;;;;;;;5032883;28;20072;-74
2023/10/08 04:38:47;;;;;;;6.20;2.28;;;;;;;;;;5014985;28;20053;-75
2023/10/08 04:41:17;;;;;;;4.75;2.13;;;;;;;;;;5033334;28;20057;-75
2023/10/08 04:43:44;;;;;;;6.22;3.03;;;;;;;;;;5031565;28;20053;-75
2023/10/08 04:46:19;;;;;;;6.13;3.13;;;;;;;;;;5022237;28;20042;-76
2023/10/08 04:48:49;;;;;;;5.15;2.47;;;;;;;;;;5020065;28;20057;-74
2023/10/08 04:51:17;;;;;;;5.95;2.95;;;;;;;;;;5022537;28;20054;-75
2023/10/08 04:53:47;;;;;;;4.43;2.38;;;;;;;;;;5018722;28;20072;-75
2023/10/08 04:56:16;;;;;;;4.28;2.03;;;;;;;;;;5033878;28;20068;-75
2023/10/08 04:58:46;;;;;;;5.78;3.05;;;;;;;;;;5027165;28;22029;-75
2023/10/08 05:01:20;;;;;;;10.65;3.38;;;;;;;;;;5025581;28;20064;-74
2023/10/08 05:04:07;;;;;;;6.07;2.33;;;;;;;;;;5023177;28;20058;-75
2023/10/08 05:07:00;;;;;;;9.43;2.92;;;;;;;;;;5016500;28;20054;-75
2023/10/08 05:09:39;;;;;;;7.38;2.60;;;;;;;;;;5018883;28;20061;-75
2023/10/08 05:12:28;;;;;;;5.97;2.80;;;;;;;;;;5015661;28;20159;-74
2023/10/08 05:15:09;;;;;;;;;;;;;;;;;;5021713;28;20984;-75
2023/10/08 05:17:46;;;;;;;7.93;3.42;;;;;;;;;;5031391;28;20282;-75
2023/10/08 05:20:19;;;;;;;6.47;3.00;;;;;;;;;;5025371;28;20053;-75
2023/10/08 05:22:55;;;;;;;8.82;3.13;;;;;;;;;;5031243;28;20395;-75
2023/10/08 05:25:40;;;;;;;6.65;3.10;;;;;;;;;;5033005;28;20410;-74
2023/10/08 05:28:11;;;;;;;5.85;3.08;;;;;;;;;;5024071;28;20501;-74
2023/10/08 05:30:41;;;;;;;5.05;2.58;;;;;;;;;;5023435;28;20065;-77
2023/10/08 05:33:13;;;;;;;5.00;2.65;;;;;;;;;;5024986;28;20418;-74
2023/10/08 05:35:54;;;;;;;5.88;2.63;;;;;;;;;;5032904;28;20483;-75
2023/10/08 05:38:37;;;;;;;6.18;3.05;;;;;;;;;;5032853;28;20380;-75
2023/10/08 05:41:05;;;;;;;5.57;2.67;;;;;;;;;;5027258;28;20514;-75
2023/10/08 05:43:55;;;;;;;7.00;2.58;;;;;;;;;;5033476;28;20049;-75
2023/10/08 05:46:49;;;;;;;6.47;2.92;;;;;;;;;;5017907;28;20057;-75
2023/10/08 05:49:42;;;;;;;5.38;2.53;;;;;;;;;;5024139;28;20060;-76
2023/10/08 05:52:25;;;;;;;7.45;3.22;;;;;;;;;;5029986;28;20056;-75
2023/10/08 05:57:40;;;;;;;9.98;3.35;;;;;;;;;;5017296;28;20065;-75
2023/10/08 06:03:07;;;;;;;5.28;3.00;;;;;;;;;;4972354;28;20049;-77
2023/10/08 06:05:43;;;;;;;6.88;2.80;;;;;;;;;;5028545;28;20049;-77
2023/10/08 06:08:14;;;;;;;7.78;3.13;;;;;;;;;;5018453;28;20068;-77
2023/10/08 06:10:56;;;;;;;9.18;3.47;;;;;;;;;;5031067;28;20058;-77
2023/10/08 06:13:29;;;;;;;6.90;2.90;;;;;;;;;;5020196;28;20050;-76
2023/10/08 06:16:05;;;;;;;7.22;3.58;;;;;;;;;;5017779;28;20050;-77
2023/10/08 06:18:32;;;;;;;8.27;3.05;;;;;;;;;;5017757;28;20073;-76
2023/10/08 06:20:59;;;;;;;6.13;3.42;;;;;;;;;;5020951;28;20497;-77
2023/10/08 06:23:29;;;;;;;12.40;3.85;;;;;;;;;;5026393;28;20060;-75
2023/10/08 06:25:57;;;;;;;7.07;3.13;;;;;;;;;;5024440;28;20046;-76
2023/10/08 06:28:25;;;;;;;6.97;2.90;;;;;;;;;;5028216;28;20052;-76
2023/10/08 06:30:53;;;;;;;5.63;3.15;;;;;;;;;;5012167;28;20046;-76
2023/10/08 06:33:20;;;;;;;7.50;4.25;;;;;;;;;;5014388;28;20407;-76
2023/10/08 06:36:01;;;;;;;5.70;2.72;;;;;;;;;;5021126;28;20053;-75
2023/10/08 06:38:30;;;;;;;10.23;3.45;;;;;;;;;;5030999;28;20052;-76
2023/10/08 06:40:59;;;;;;;7.28;3.40;;;;;;;;;;5017018;28;20057;-76
2023/10/08 06:43:26;;;;;;;6.72;3.58;;;;;;;;;;5030699;28;20057;-77
2023/10/08 06:45:57;;;;;;;6.43;2.85;;;;;;;;;;5024816;28;20152;-76
2023/10/08 06:48:25;;;;;;;6.03;3.25;;;;;;;;;;5018721;28;20490;-76
2023/10/08 06:50:56;;;;;;;4.85;2.55;;;;;;;;;;5022958;28;20057;-76
2023/10/08 06:53:23;;;;;;;7.10;3.22;;;;;;;;;;5017889;28;20488;-77
2023/10/08 06:55:56;;;;;;;6.00;3.42;;;;;;;;;;5018833;28;20050;-76
2023/10/08 06:58:23;;;;;;;8.02;3.42;;;;;;;;;;5027253;28;20056;-76
2023/10/08 07:00:50;;;;;;;6.60;2.55;;;;;;;;;;5021346;28;20054;-76
2023/10/08 07:03:17;;;;;;;5.97;2.47;;;;;;;;;;5025488;28;20388;-76
2023/10/08 07:05:53;;;;;;;9.30;3.25;;;;;;;;;;5030648;28;20041;-76
2023/10/08 07:08:23;;;;;;;7.28;3.47;;;;;;;;;;5028082;28;20049;-76
2023/10/08 07:10:50;;;;;;;5.85;3.00;;;;;;;;;;5028312;28;20052;-76
2023/10/08 07:13:19;;;;;;;10.10;3.35;;;;;;;;;;5012619;28;20060;-76
2023/10/08 07:15:46;;;;;;;;;;;;;;;;;;5024552;28;20057;-76
2023/10/08 07:18:14;;;;;;;5.45;3.05;;;;;;;;;;5022303;28;19922;-76
2023/10/08 07:20:41;;;;;;;5.23;2.77;;;;;;;;;;5026921;28;20057;-76
2023/10/08 07:23:18;;;;;;;5.13;2.60;;;;;;;;;;5012262;28;21143;-76
2023/10/08 07:25:51;;;;;;;6.53;3.60;;;;;;;;;;5024177;28;20470;-76
2023/10/08 07:28:21;;;;;;;5.90;3.17;;;;;;;;;;5027138;28;20414;-76
2023/10/08 07:30:49;;;;;;;6.10;3.08;;;;;;;;;;5020135;28;20057;-76
2023/10/08 07:33:18;;;;;;;5.50;2.63;;;;;;;;;;5015788;28;20061;-76
2023/10/08 07:35:52;;;;;;;7.28;2.42;;;;;;;;;;5033787;28;20410;-76
2023/10/08 07:38:20;;;;;;;3.65;2.53;;;;;;;;;;5021463;28;20049;-76
2023/10/08 07:40:48;;;;;;;6.55;2.92;;;;;;;;;;5024282;28;20399;-77
2023/10/08 07:43:17;;;;;;;4.43;1.90;;;;;;;;;;5029802;28;20053;-76
2023/10/08 07:45:48;;;;;;;4.13;2.35;;;;;;;;;;5018846;28;20054;-76
2023/10/08 07:48:15;;;;;;;5.25;2.13;;;;;;;;;;5016810;28;20050;-76
2023/10/08 07:50:43;;;;;;;4.03;1.90;;;;;;;;;;5018555;28;20054;-76
2023/10/08 07:53:17;;;;;;;4.15;2.65;;;;;;;;;;5019638;28;20042;-76
2023/10/08 07:55:45;;;;;;;4.20;2.30;;;;;;;;;;5019110;28;20054;-77
2023/10/08 07:58:14;;;;;;;4.28;2.08;;;;;;;;;;5017967;28;20050;-76
2023/10/08 08:00:41;;;;;;;4.90;2.53;;;;;;;;;;5026249;28;20045;-76
2023/10/08 08:03:11;;;;;;;3.75;2.30;;;;;;;;;;5020775;28;20049;-76
2023/10/08 08:05:40;;;;;;;6.85;3.22;;;;;;;;;;5025476;28;20054;-76
2023/10/08 08:08:07;;;;;;;4.20;2.22;;;;;;;;;;5025081;28;20053;-76
2023/10/08 08:10:36;;;;;;;3.33;2.13;;;;;;;;;;5022641;28;20057;-77
2023/10/08 08:13:05;;;;;;;6.82;2.35;;;;;;;;;;5036742;28;20053;-78
2023/10/08 08:15:33;;;;;;;4.60;1.83;;;;;;;;;;5030096;28;20049;-76
2023/10/08 08:18:00;;;;;;;2.95;1.48;;;;;;;;;;5021803;28;20050;-77
2023/10/08 08:20:38;;;;;;;2.95;1.50;;;;;;;;;;5022955;28;20049;-78
2023/10/08 08:23:07;;;;;;;1.20;0.73;;;;;;;;;;5023669;28;20045;-76
2023/10/08 08:25:45;;;;;;;1.80;0.77;;;;;;;;;;5028992;28;20487;-77
2023/10/08 08:28:16;;;;;;;1.85;0.73;;;;;;;;;;5026376;28;20050;-76
2023/10/08 08:30:46;;;;;;;1.35;0.60;;;;;;;;;;5023539;28;20049;-76
2023/10/08 08:33:21;;;;;;;0.63;0.30;;;;;;;;;;5037949;28;20524;-76
2023/10/08 08:35:57;;;;;;;1.33;0.32;;;;;;;;;;5035662;28;20409;-75
2023/10/08 08:38:25;;;;;;;0.77;0.38;;;;;;;;;;5035018;28;20057;-76
2023/10/08 08:41:06;;;;;;;1.38;0.40;;;;;;;;;;5037060;28;20128;-77
2023/10/08 08:43:39;;;;;;;1.75;0.55;;;;;;;;;;5034760;28;20050;-79
2023/10/08 08:46:12;;;;;;;1.27;0.30;;;;;;;;;;5034308;28;20053;-80
2023/10/08 08:48:40;;;;;;;0.63;0.20;;;;;;;;;;5034987;28;20483;-79
2023/10/08 08:51:09;;;;;;;0.22;0.10;;;;;;;;;;5037817;28;20052;-79
2023/10/08 08:53:36;;;;;;;0.35;0.10;;;;;;;;;;5029671;28;20410;-79
2023/10/08 08:56:07;;;;;;;0.10;0.10;;;;;;;;;;5024599;28;20073;-80
2023/10/08 08:58:34;;;;;;;0.55;0.30;;;;;;;;;;5030658;28;20075;-80
2023/10/08 09:01:03;;;;;;;0.47;0.20;;;;;;;;;;5022094;28;20049;-80
2023/10/08 09:03:31;;;;;;;3.03;1.23;;;;;;;;;;5030370;28;20053;-80
2023/10/08 09:05:58;;;;;;;1.10;0.50;;;;;;;;;;5037073;28;20060;-79
2023/10/08 09:08:33;;;;;;;0.88;0.40;;;;;;;;;;5035794;28;20116;-80
2023/10/08 09:11:02;;;;;;;1.17;0.60;;;;;;;;;;5048727;28;20053;-80
2023/10/08 09:13:29;;;;;;;1.08;0.50;;;;;;;;;;5034180;28;20072;-80
2023/10/08 09:16:03;;;;;;;1.00;0.30;;;;;;;;;;5019489;28;20046;-79
2023/10/08 09:18:32;;;;;;;2.88;0.50;;;;;;;;;;5035048;28;20049;-79
2023/10/08 09:21:10;;;;;;;0.60;0.40;;;;;;;;;;5042514;28;20530;-79
2023/10/08 09:23:44;;;;;;;1.90;0.40;;;;;;;;;;5026443;28;20117;-78
2023/10/08 09:26:13;;;;;;;1.00;0.45;;;;;;;;;;5018112;28;20046;-80
2023/10/08 09:28:40;;;;;;;;;;;;;;;;;;5029403;28;20423;-80
2023/10/08 09:31:11;;;;;;;0.90;0.50;;;;;;;;;;5019784;28;20416;-79
2023/10/08 09:33:38;;;;;;;0.75;0.40;;;;;;;;;;5024571;28;20057;-80
2023/10/08 09:36:10;;;;;;;1.98;0.40;;;;;;;;;;5036014;28;20049;-80
2023/10/08 09:38:39;;;;;;;0.57;0.20;;;;;;;;;;5030116;28;20065;-79
2023/10/08 09:41:08;;;;;;;;;;;;;;;;;;5030321;28;20064;-78
2023/10/08 09:43:38;;;;;;;2.35;0.90;;;;;;;;;;5022331;28;19955;-79
2023/10/08 09:46:09;;;;;;;0.57;0.30;;;;;;;;;;5020628;28;20050;-79
2023/10/08 09:48:38;;;;;;;1.13;0.70;;;;;;;;;;5018430;28;20060;-78
2023/10/08 09:51:06;;;;;;;1.25;0.45;;;;;;;;;;5022875;28;20057;-79
2023/10/08 09:53:39;;;;;;;0.55;0.30;;;;;;;;;;5031634;28;20064;-79
2023/10/08 09:56:14;;;;;;;1.00;0.40;;;;;;;;;;5027046;28;20391;-78
2023/10/08 09:58:42;;;;;;;0.63;0.20;;;;;;;;;;5023713;28;20061;-79
2023/10/08 10:01:09;;;;;;;0.57;0.40;;;;;;;;;;5025656;28;20401;-79
2023/10/08 10:03:37;;;;;;;0.82;0.30;;;;;;;;;;5024922;28;20056;-79
2023/10/08 10:06:09;;;;;;;0.28;0.17;;;;;;;;;;5014003;28;20483;-79
2023/10/08 10:08:36;;;;;;;1.13;0.50;;;;;;;;;;5015114;28;20060;-79
2023/10/08 10:11:03;;;;;;;1.77;0.40;;;;;;;;;;5013734;28;20046;-82
2023/10/08 10:13:39;;;;;;;0.93;0.47;;;;;;;;;;5018505;28;20050;-81
2023/10/08 10:16:08;;;;;;;2.10;0.60;;;;;;;;;;5019001;28;20054;-80
2023/10/08 10:18:35;;;;;;;0.82;0.30;;;;;;;;;;5022026;28;20499;-81
2023/10/08 10:21:22;;;;;;;1.27;0.40;;;;;;;;;;5031488;28;20057;-79
2023/10/08 10:23:51;;;;;;;0.55;0.35;;;;;;;;;;5024703;28;20041;-79
2023/10/08 10:26:24;;;;;;;1.20;0.50;;;;;;;;;;5040041;28;20072;-79
2023/10/08 10:29:10;;;;;;;1.13;0.47;;;;;;;;;;5032334;28;20052;-78
2023/10/08 10:31:37;;;;;;;0.80;0.38;;;;;;;;;;5023921;28;20058;-79
2023/10/08 10:34:05;;;;;;;0.80;0.20;;;;;;;;;;5026649;28;20053;-77
2023/10/08 10:36:32;;;;;;;0.73;0.50;;;;;;;;;;5022443;28;20057;-77
2023/10/08 10:39:00;;;;;;;1.65;0.50;;;;;;;;;;5026657;28;20053;-77
2023/10/08 10:41:27;;;;;;;1.45;0.30;;;;;;;;;;5032231;28;20479;-77
2023/10/08 10:43:54;;;;;;;0.50;0.15;;;;;;;;;;5025698;28;20073;-77
2023/10/08 10:46:29;;;;;;;2.50;0.57;;;;;;;;;;5014446;28;20414;-77
2023/10/08 10:49:07;;;;;;;0.75;0.30;;;;;;;;;;5015875;28;20440;-77
2023/10/08 10:51:34;;;;;;;1.38;0.40;;;;;;;;;;5018778;28;20056;-76
2023/10/08 10:54:09;;;;;;;1.40;0.40;;;;;;;;;;5018445;28;20044;-77
2023/10/08 10:56:41;;;;;;;0.68;0.30;;;;;;;;;;5011577;28;20049;-77
2023/10/08 10:59:18;;;;;;;1.05;0.50;;;;;;;;;;5027562;28;20053;-77
2023/10/08 11:01:52;;;;;;;0.68;0.20;;;;;;;;;;5021054;28;20056;-76
2023/10/08 11:04:19;;;;;;;0.75;0.30;;;;;;;;;;5021456;28;20545;-76
2023/10/08 11:06:48;;;;;;;2.17;0.70;;;;;;;;;;5022336;28;20514;-75
2023/10/08 11:09:17;;;;;;;0.90;0.40;;;;;;;;;;5017920;28;20054;-75
2023/10/08 11:11:44;;;;;;;0.68;0.30;;;;;;;;;;5013371;28;20050;-76
2023/10/08 11:14:15;;;;;;;1.58;0.82;;;;;;;;;;5022630;28;20050;-77
2023/10/08 11:16:43;;;;;;;2.95;0.52;;;;;;;;;;5013569;28;20053;-76
2023/10/08 11:19:10;;;;;;;1.20;0.50;;;;;;;;;;5016056;28;20054;-76
2023/10/08 11:21:48;;;;;;;1.02;0.40;;;;;;;;;;5029840;28;20433;-77
2023/10/08 11:24:27;;;;;;;1.88;0.40;;;;;;;;;;5026059;28;20410;-77
2023/10/08 11:27:06;;;;;;;3.53;0.70;;;;;;;;;;5023495;28;20057;-77
2023/10/08 11:29:33;;;;;;;0.67;0.37;;;;;;;;;;5023958;28;20410;-77
2023/10/08 11:32:01;;;;;;;6.40;0.75;;;;;;;;;;5021674;28;20128;-77
2023/10/08 11:34:39;;;;;;;0.82;0.30;;;;;;;;;;5016389;28;20060;-76
2023/10/08 11:37:07;;;;;;;1.38;0.43;;;;;;;;;;5020579;28;20418;-76
2023/10/08 11:39:45;;;;;;;1.48;0.63;;;;;;;;;;5023903;28;20068;-78
2023/10/08 11:42:36;;;;;;;2.72;0.35;;;;;;;;;;5014758;28;20054;-76
2023/10/08 11:45:17;;;;;;;0.63;0.35;;;;;;;;;;5021014;28;20406;-76
2023/10/08 11:47:44;;;;;;;0.28;0.20;;;;;;;;;;5012554;28;20451;-77
2023/10/08 11:50:16;;;;;;;1.10;0.50;;;;;;;;;;5029333;28;20053;-78
2023/10/08 11:52:43;;;;;;;2.15;0.20;;;;;;;;;;5029351;28;20088;-77
2023/10/08 11:55:18;;;;;;;1.10;0.43;;;;;;;;;;5032154;28;20057;-79
2023/10/08 11:57:48;;;;;;;0.82;0.32;;;;;;;;;;5026024;28;20490;-78
2023/10/08 12:00:19;;;;;;;0.77;0.28;;;;;;;;;;5021563;28;20049;-77
2023/10/08 12:02:46;;;;;;;0.65;0.25;;;;;;;;;;5020576;28;20060;-77
2023/10/08 12:05:18;;;;;;;0.10;0.10;;;;;;;;;;5023905;28;20056;-78
2023/10/08 12:07:46;;;;;;;1.63;0.40;;;;;;;;;;5031525;28;20049;-78
2023/10/08 12:10:16;;;;;;;0.73;0.40;;;;;;;;;;5028616;28;20056;-77
2023/10/08 12:12:45;;;;;;;0.80;0.30;;;;;;;;;;5024926;28;20416;-77
2023/10/08 12:15:19;;;;;;;0.75;0.30;;;;;;;;;;5022701;28;20056;-77
2023/10/08 12:18:08;;;;;;;0.80;0.30;;;;;;;;;;5020112;28;20045;-77
2023/10/08 12:20:34;;;;;;;0.55;0.25;;;;;;;;;;5013545;28;20519;-78
2023/10/08 12:23:01;;;;;;;2.72;0.40;;;;;;;;;;5003856;28;20049;-77
2023/10/08 12:25:32;;;;;;;0.47;0.30;;;;;;;;;;5021339;28;20068;-80
2023/10/08 12:28:01;;;;;;;1.95;0.85;;;;;;;;;;5031516;28;20045;-79
2023/10/08 12:30:31;;;;;;;1.30;0.68;;;;;;;;;;5016598;28;20407;-79
2023/10/08 12:32:58;;;;;;;;;;;;;;;;;;5029980;28;20526;-79
2023/10/08 12:35:25;;;;;;;1.13;0.43;;;;;;;;;;5025509;28;19932;-79
2023/10/08 12:37:53;;;;;;;1.42;0.50;;;;;;;;;;5015461;28;20053;-79
2023/10/08 12:40:23;;;;;;;2.05;0.50;;;;;;;;;;5015252;28;20050;-79
2023/10/08 12:42:52;;;;;;;0.35;0.20;;;;;;;;;;5035107;28;20053;-80
2023/10/08 12:45:21;;;;;;;1.15;0.30;;;;;;;;;;5020127;28;20053;-80
2023/10/08 12:47:47;;;;;;;;;;;;;;;;;;5016083;28;20790;-79
2023/10/08 12:50:15;;;;;;;2.22;0.88;;;;;;;;;;5015408;28;19921;-80
2023/10/08 12:52:47;;;;;;;1.13;0.30;;;;;;;;;;5014806;28;20064;-79
2023/10/08 12:55:13;;;;;;;1.13;0.40;;;;;;;;;;5015265;28;20054;-80
2023/10/08 12:57:42;;;;;;;2.47;0.43;;;;;;;;;;5025010;28;20410;-79
2023/10/08 13:00:11;;;;;;;0.98;0.35;;;;;;;;;;5014160;28;20399;-80
2023/10/08 13:02:42;;;;;;;;;;;;;;;;;;5023679;28;20053;-80
2023/10/08 13:05:15;;;;;;;2.55;0.52;;;;;;;;;;5034696;28;19921;-79
2023/10/08 13:07:44;;;;;;;0.60;0.20;;;;;;;;;;5034533;28;20061;-79
2023/10/08 13:10:14;;;;;;;2.95;0.30;;;;;;;;;;5015829;28;20049;-79
2023/10/08 13:12:41;;;;;;;0.82;0.28;;;;;;;;;;5030026;28;20053;-80
2023/10/08 13:15:10;;;;;;;0.65;0.40;;;;;;;;;;5022332;28;20053;-79
2023/10/08 13:17:37;;;;;;;0.77;0.47;;;;;;;;;;5020711;28;20609;-80
2023/10/08 13:20:04;;;;;;;0.47;0.22;;;;;;;;;;5033058;28;20064;-79
2023/10/08 13:22:33;;;;;;;0.98;0.40;;;;;;;;;;5034287;28;20061;-80
2023/10/08 13:25:04;;;;;;;;;;;;;;;;;;5033528;28;20057;-80
2023/10/08 13:27:31;;;;;;;1.65;0.60;;;;;;;;;;5020656;28;19921;-80
2023/10/08 13:29:58;;;;;;;2.70;1.05;;;;;;;;;;5014619;28;20049;-80
2023/10/08 13:32:26;;;;;;;0.82;0.35;;;;;;;;;;5016663;28;20050;-80
2023/10/08 13:34:53;;;;;;;0.95;0.40;;;;;;;;;;5015340;28;20054;-80
2023/10/08 13:37:20;;;;;;;1.10;0.57;;;;;;;;;;5032969;28;20079;-80
2023/10/08 13:39:46;;;;;;;1.17;0.55;;;;;;;;;;5028153;28;20049;-79
2023/10/08 13:42:19;;;;;;;1.25;0.57;;;;;;;;;;5024101;28;20058;-81
2023/10/08 13:44:45;;;;;;;2.17;0.73;;;;;;;;;;5018374;28;20049;-81
2023/10/08 13:47:15;;;;;;;1.92;0.90;;;;;;;;;;5023740;28;20056;-80
2023/10/08 13:49:44;;;;;;;1.38;0.80;;;;;;;;;;5022370;28;20364;-80
2023/10/08 13:52:11;;;;;;;3.03;0.65;;;;;;;;;;5014156;28;20383;-81
2023/10/08 13:54:41;;;;;;;2.55;0.95;;;;;;;;;;5027637;28;20049;-80
2023/10/08 13:57:08;;;;;;;1.40;0.60;;;;;;;;;;5017714;28;20065;-83
2023/10/08 13:59:37;;;;;;;1.50;0.70;;;;;;;;;;5027252;28;20053;-83
2023/10/08 14:02:14;;;;;;;1.77;0.90;;;;;;;;;;5013672;28;20517;-82
2023/10/08 14:04:43;;;;;;;3.63;0.77;;;;;;;;;;5021266;28;20049;-83
2023/10/08 14:07:16;;;;;;;2.70;1.23;;;;;;;;;;5022695;28;20495;-83
2023/10/08 14:09:45;;;;;;;1.40;0.70;;;;;;;;;;5013394;28;20399;-82
2023/10/08 14:12:14;;;;;;;1.70;0.80;;;;;;;;;;5013150;28;20057;-81
2023/10/08 14:14:43;;;;;;;2.63;1.38;;;;;;;;;;5009025;28;20049;-80
2023/10/08 14:17:14;;;;;;;2.10;1.13;;;;;;;;;;5014804;28;20514;-82
2023/10/08 14:19:46;;;;;;;3.38;1.35;;;;;;;;;;5026132;28;20049;-84
2023/10/08 14:22:16;;;;;;;2.75;1.23;;;;;;;;;;5030307;28;20053;-82
2023/10/08 14:24:45;;;;;;;3.17;1.10;;;;;;;;;;5023706;28;20491;-82
2023/10/08 14:27:15;;;;;;;2.03;1.23;;;;;;;;;;5025057;28;20120;-82
2023/10/08 14:29:44;;;;;;;2.28;1.25;;;;;;;;;;5024292;28;20375;-82
2023/10/08 14:32:11;;;;;;;0.82;0.50;;;;;;;;;;5031143;28;20052;-82
2023/10/08 14:43:01;;;;;;;1.52;0.82;;;;;;;;;;5021741;28;20046;-83
2023/10/08 14:45:31;;;;;;;1.30;0.70;;;;;;;;;;5023185;28;20050;-80
2023/10/08 14:47:58;;;;;;;1.40;0.70;;;;;;;;;;5019122;28;20053;-80
2023/10/08 14:50:27;;;;;;;1.98;0.80;;;;;;;;;;5018291;28;20398;-80
2023/10/08 14:52:55;;;;;;;1.40;0.65;;;;;;;;;;5024048;28;20521;-80
2023/10/08 14:55:22;;;;;;;2.97;1.27;;;;;;;;;;5023212;28;20053;-80
2023/10/08 14:57:51;;;;;;;2.55;1.48;;;;;;;;;;5022905;28;20517;-80
2023/10/08 15:00:24;;;;;;;2.67;1.40;;;;;;;;;;5031457;28;20060;-80
2023/10/08 15:02:51;;;;;;;1.20;0.70;;;;;;;;;;5023980;28;20065;-80
2023/10/08 15:05:18;;;;;;;2.78;1.40;;;;;;;;;;5029148;28;20371;-80
2023/10/08 15:07:45;;;;;;;2.58;1.27;;;;;;;;;;5016620;28;20058;-80
2023/10/08 15:10:14;;;;;;;2.00;1.15;;;;;;;;;;5027974;28;20463;-80
2023/10/08 15:12:41;;;;;;;1.92;0.80;;;;;;;;;;5010550;28;20060;-80
2023/10/08 15:15:13;;;;;;;1.50;0.80;;;;;;;;;;5030233;28;20054;-80
2023/10/08 15:17:41;;;;;;;1.33;0.57;;;;;;;;;;5024913;28;20053;-80
2023/10/08 15:20:14;;;;;;;1.02;0.50;;;;;;;;;;5012437;28;20065;-80
2023/10/08 15:22:42;;;;;;;2.75;0.63;;;;;;;;;;5004603;28;20392;-80
2023/10/08 15:25:10;;;;;;;0.90;0.57;;;;;;;;;;5012754;28;20049;-80
2023/10/08 15:27:39;;;;;;;2.00;0.70;;;;;;;;;;5008570;28;20505;-80